Cabimas, Venezuela
Current Conditions -  °F | °C
As of 9:00 PM on Saturday 25 Oct 2014 (Local Time) from SKVP Reporting Station
Drizzle Drizzle  
Wind Chill: 77°   Ceiling: Unl
Heat Index: 78°   Visibility: 6mi
Dew Point: 72°   Wind: 6mph
Humidity: 83%   Direction: 360°N
Pressure: 29.91"   Gusts: NA
Location:  10.43°N, 71.45°W
Report Text: SKVP 260100Z 36005KT 9999 DZ FEW015 SCT090 25/22 A2991
Loading
Personal Weather Stations






























Interactive Weather Map New forecast layout! Learn more

10-Day Weather Forecast

Advertisements
Track Severe Weather on mobile